createdAt,value
2018-09-19T00:02:26.617Z,20.00
2018-09-19T00:04:55.079Z,19.90
2018-09-19T00:07:23.574Z,19.90
2018-09-19T00:09:52.175Z,19.90
2018-09-19T00:12:20.598Z,19.80
2018-09-19T00:14:48.991Z,19.80
2018-09-19T00:17:17.439Z,19.70
2018-09-19T00:19:45.854Z,19.60
2018-09-19T00:22:14.357Z,19.50
2018-09-19T00:24:43.028Z,19.50
2018-09-19T00:27:11.602Z,19.30
2018-09-19T00:29:40.066Z,19.20
2018-09-19T00:32:08.732Z,19.10
2018-09-19T00:34:37.471Z,19.00
2018-09-19T00:37:06.198Z,19.00
2018-09-19T00:39:34.674Z,19.00
2018-09-19T00:42:03.122Z,19.00
2018-09-19T00:44:31.552Z,19.00
2018-09-19T00:47:00.079Z,19.00
2018-09-19T00:49:28.750Z,19.00
2018-09-19T00:51:57.183Z,18.90
2018-09-19T00:54:25.638Z,18.90
2018-09-19T00:56:54.068Z,18.80
2018-09-19T00:59:22.581Z,18.80
2018-09-19T01:01:51.201Z,18.70
2018-09-19T01:04:19.738Z,18.70
2018-09-19T01:06:48.221Z,18.60
2018-09-19T01:09:16.661Z,18.60
2018-09-19T01:11:45.220Z,18.50
2018-09-19T01:14:13.735Z,18.40
2018-09-19T01:16:42.216Z,18.40
2018-09-19T01:19:10.644Z,18.40
2018-09-19T01:21:39.069Z,18.30
2018-09-19T01:24:07.558Z,18.30
2018-09-19T01:26:35.975Z,18.30
2018-09-19T01:29:04.475Z,18.30
2018-09-19T01:31:32.874Z,18.30
2018-09-19T01:34:01.322Z,18.30
2018-09-19T01:36:29.814Z,18.30
2018-09-19T01:38:58.273Z,18.30
2018-09-19T01:41:26.719Z,18.40
2018-09-19T01:43:55.423Z,18.40
2018-09-19T01:46:23.857Z,18.40
2018-09-19T01:48:52.379Z,18.40
2018-09-19T01:51:20.986Z,18.40
2018-09-19T01:53:49.528Z,18.40
2018-09-19T01:56:24.620Z,18.40
2018-09-19T01:58:53.099Z,18.30
2018-09-19T02:01:21.545Z,18.20
2018-09-19T02:03:50.322Z,18.20
2018-09-19T02:06:18.802Z,18.20
2018-09-19T02:08:47.240Z,18.20
2018-09-19T02:11:15.684Z,18.20
2018-09-19T02:13:44.166Z,18.20
2018-09-19T02:16:12.751Z,18.20
2018-09-19T02:18:41.208Z,18.10
2018-09-19T02:21:09.800Z,18.10
2018-09-19T02:23:38.267Z,18.10
2018-09-19T02:26:06.747Z,18.10
2018-09-19T02:28:35.197Z,18.10
2018-09-19T02:31:03.866Z,18.10
2018-09-19T02:33:32.272Z,18.20
2018-09-19T02:36:00.724Z,18.20
2018-09-19T02:38:29.178Z,18.20
2018-09-19T02:40:57.598Z,18.20
2018-09-19T02:43:26.314Z,18.20
2018-09-19T02:45:54.759Z,18.20
2018-09-19T02:48:23.184Z,18.20
2018-09-19T02:50:52.075Z,18.20
2018-09-19T02:53:20.562Z,18.10
2018-09-19T02:55:49.011Z,18.10
2018-09-19T02:58:17.515Z,18.10
2018-09-19T03:00:45.935Z,18.00
2018-09-19T03:03:14.334Z,17.90
2018-09-19T03:05:42.778Z,17.80
2018-09-19T03:08:11.194Z,17.80
2018-09-19T03:10:39.677Z,17.70
2018-09-19T03:13:08.171Z,17.60
2018-09-19T03:15:36.637Z,17.60
2018-09-19T03:18:05.073Z,17.60
2018-09-19T03:20:33.630Z,17.60
2018-09-19T03:23:02.180Z,17.60
2018-09-19T03:25:30.660Z,17.60
2018-09-19T03:27:59.349Z,17.60
2018-09-19T03:30:27.827Z,17.50
2018-09-19T03:32:56.423Z,17.50
2018-09-19T03:35:25.063Z,17.50
2018-09-19T03:37:53.699Z,17.50
2018-09-19T03:40:22.122Z,17.40
2018-09-19T03:42:50.792Z,17.40
2018-09-19T03:45:19.196Z,17.30
2018-09-19T03:47:47.679Z,17.20
2018-09-19T03:50:16.209Z,17.20
2018-09-19T03:52:44.861Z,17.20
2018-09-19T03:55:13.250Z,17.30
2018-09-19T03:57:41.672Z,17.30
2018-09-19T04:00:10.102Z,17.30
2018-09-19T04:02:38.606Z,17.30
2018-09-19T04:05:07.084Z,17.20
2018-09-19T04:07:35.534Z,17.20
2018-09-19T04:10:04.001Z,17.20
2018-09-19T04:12:32.631Z,17.10
2018-09-19T04:15:01.059Z,17.10
2018-09-19T04:17:29.498Z,17.20
2018-09-19T04:19:57.944Z,17.20
2018-09-19T04:22:26.502Z,17.20
2018-09-19T04:24:54.966Z,17.10
2018-09-19T04:27:23.388Z,17.10
2018-09-19T04:29:51.893Z,17.10
2018-09-19T04:32:20.565Z,17.10
2018-09-19T04:34:49.121Z,17.20
2018-09-19T04:37:17.675Z,17.20
2018-09-19T04:39:46.289Z,17.20
2018-09-19T04:42:14.920Z,17.20
2018-09-19T04:44:43.326Z,17.20
2018-09-19T04:47:11.930Z,17.20
2018-09-19T04:49:40.362Z,17.10
2018-09-19T04:52:08.942Z,17.10
2018-09-19T04:54:37.356Z,17.10
2018-09-19T04:57:05.964Z,17.00
2018-09-19T04:59:34.400Z,16.90
2018-09-19T05:02:02.846Z,17.00
2018-09-19T05:04:31.313Z,17.00
2018-09-19T05:06:59.808Z,17.00
2018-09-19T05:09:28.253Z,17.00
2018-09-19T05:11:56.745Z,17.00
2018-09-19T05:14:25.233Z,17.00
2018-09-19T05:16:53.655Z,17.10
2018-09-19T05:19:22.075Z,17.10
2018-09-19T05:21:50.573Z,17.20
2018-09-19T05:24:19.060Z,17.10
2018-09-19T05:26:47.694Z,17.10
2018-09-19T05:29:16.127Z,17.00
2018-09-19T05:31:44.607Z,17.00
2018-09-19T05:34:13.181Z,17.10
2018-09-19T05:36:41.643Z,17.10
2018-09-19T05:39:10.095Z,17.10
2018-09-19T05:41:38.497Z,17.10
2018-09-19T05:44:06.985Z,17.10
2018-09-19T05:46:35.565Z,17.10
2018-09-19T05:49:04.546Z,17.10
2018-09-19T05:51:33.230Z,17.00
2018-09-19T05:54:01.831Z,17.00
2018-09-19T05:56:30.278Z,17.00
2018-09-19T05:58:58.795Z,17.00
2018-09-19T06:01:27.392Z,17.00
2018-09-19T06:03:55.835Z,17.10
2018-09-19T06:06:24.331Z,17.10
2018-09-19T06:08:52.791Z,17.10
2018-09-19T06:11:21.209Z,17.20
2018-09-19T06:13:49.921Z,17.30
2018-09-19T06:16:18.337Z,17.30
2018-09-19T06:18:46.999Z,17.40
2018-09-19T06:21:15.484Z,17.50
2018-09-19T06:23:43.941Z,17.60
2018-09-19T06:26:12.358Z,17.70
2018-09-19T06:28:40.896Z,17.80
2018-09-19T06:31:09.343Z,17.80
2018-09-19T06:33:37.773Z,17.80
2018-09-19T06:36:06.246Z,17.90
2018-09-19T06:38:34.821Z,17.90
2018-09-19T06:41:03.443Z,17.90
2018-09-19T06:43:32.337Z,17.90
2018-09-19T06:46:00.805Z,18.00
2018-09-19T06:48:29.247Z,18.00
2018-09-19T06:50:57.798Z,18.10
2018-09-19T06:53:26.261Z,18.10
2018-09-19T06:55:54.843Z,18.10
2018-09-19T06:58:23.242Z,18.20
2018-09-19T07:00:51.717Z,18.20
2018-09-19T07:03:20.147Z,18.20
2018-09-19T07:05:48.619Z,18.30
2018-09-19T07:08:17.182Z,18.40
2018-09-19T07:10:45.623Z,18.50
2018-09-19T07:13:14.145Z,18.60
2018-09-19T07:15:42.847Z,18.80
2018-09-19T07:18:11.272Z,18.90
2018-09-19T07:20:39.849Z,19.10
2018-09-19T07:23:08.278Z,19.10
2018-09-19T07:25:36.745Z,19.20
2018-09-19T07:28:05.211Z,19.30
2018-09-19T07:30:33.759Z,19.40
2018-09-19T07:33:02.165Z,19.50
2018-09-19T07:35:30.628Z,19.60
2018-09-19T07:37:59.189Z,19.70
2018-09-19T07:40:27.715Z,19.90
2018-09-19T07:42:56.232Z,20.00
2018-09-19T07:45:24.674Z,20.10
2018-09-19T07:47:53.176Z,20.20
2018-09-19T07:50:21.635Z,20.40
2018-09-19T07:52:50.081Z,20.50
2018-09-19T07:55:18.555Z,20.60
2018-09-19T07:57:47.459Z,20.70
2018-09-19T08:00:15.899Z,20.80
2018-09-19T08:02:44.336Z,21.00
2018-09-19T08:05:12.821Z,21.10
2018-09-19T08:07:41.471Z,21.20
2018-09-19T08:10:09.934Z,21.30
2018-09-19T08:12:38.429Z,21.30
2018-09-19T08:15:07.074Z,21.30
2018-09-19T08:17:35.588Z,21.40
2018-09-19T08:20:04.023Z,21.40
2018-09-19T08:22:32.566Z,21.30
2018-09-19T08:25:01.216Z,21.20
2018-09-19T08:27:29.700Z,21.00
2018-09-19T08:29:58.111Z,20.90
2018-09-19T08:32:26.555Z,21.00
2018-09-19T08:34:54.967Z,21.10
2018-09-19T08:37:23.594Z,21.20
2018-09-19T08:39:52.026Z,21.40
2018-09-19T08:42:20.530Z,21.50
2018-09-19T08:44:48.976Z,21.60
2018-09-19T08:47:17.437Z,21.80
2018-09-19T08:49:46.011Z,21.90
2018-09-19T08:52:14.522Z,21.90
2018-09-19T08:54:43.243Z,21.80
2018-09-19T08:57:12.481Z,21.70
2018-09-19T08:59:41.042Z,21.70
2018-09-19T09:02:09.458Z,21.80
2018-09-19T09:04:37.933Z,21.80
2018-09-19T09:07:06.373Z,21.80
2018-09-19T09:09:34.864Z,21.90
2018-09-19T09:12:03.300Z,21.90
2018-09-19T09:14:31.891Z,22.00
2018-09-19T09:17:00.334Z,22.00
2018-09-19T09:19:28.806Z,22.10
2018-09-19T09:21:57.259Z,22.10
2018-09-19T09:24:25.708Z,22.00
2018-09-19T09:26:54.241Z,22.00
2018-09-19T09:29:22.848Z,22.00
2018-09-19T09:31:51.344Z,22.00
2018-09-19T09:34:19.862Z,21.90
2018-09-19T09:36:48.532Z,21.90
2018-09-19T09:39:17.064Z,21.90
2018-09-19T09:41:45.567Z,21.90
2018-09-19T09:44:13.970Z,21.90
2018-09-19T09:46:42.440Z,21.90
2018-09-19T09:49:10.897Z,21.90
2018-09-19T09:51:39.370Z,21.90
2018-09-19T09:54:07.820Z,22.00
2018-09-19T09:56:36.319Z,22.00
2018-09-19T09:59:04.797Z,22.10
2018-09-19T10:01:33.199Z,22.10
2018-09-19T10:04:01.747Z,22.20
2018-09-19T10:06:30.212Z,22.20
2018-09-19T10:08:58.854Z,22.30
2018-09-19T10:11:28.161Z,22.20
2018-09-19T10:13:56.634Z,22.30
2018-09-19T10:16:25.122Z,22.40
2018-09-19T10:18:53.558Z,22.40
2018-09-19T10:21:22.589Z,22.40
2018-09-19T10:23:51.350Z,22.50
2018-09-19T10:26:20.347Z,22.60
2018-09-19T10:28:48.961Z,22.70
2018-09-19T10:31:17.679Z,22.80
2018-09-19T10:33:46.411Z,22.90
2018-09-19T10:36:14.905Z,23.00
2018-09-19T10:38:43.612Z,23.00
2018-09-19T10:41:12.193Z,23.10
2018-09-19T10:43:40.667Z,23.10
2018-09-19T10:46:09.118Z,23.20
2018-09-19T10:48:38.065Z,23.30
2018-09-19T10:51:06.634Z,23.30
2018-09-19T10:53:35.038Z,23.30
2018-09-19T10:56:04.383Z,23.30
2018-09-19T10:58:32.878Z,23.30
2018-09-19T11:01:01.434Z,23.30
2018-09-19T11:03:29.875Z,23.30
2018-09-19T11:05:59.141Z,23.20
2018-09-19T11:08:27.534Z,23.30
2018-09-19T11:10:56.540Z,23.30
2018-09-19T11:13:25.667Z,23.40
2018-09-19T11:15:56.931Z,23.50
2018-09-19T11:18:25.427Z,23.50
2018-09-19T11:20:53.877Z,23.50
2018-09-19T11:23:22.890Z,23.50
2018-09-19T11:25:51.706Z,23.50
2018-09-19T11:28:20.844Z,23.60
2018-09-19T11:30:49.822Z,23.70
2018-09-19T11:33:18.508Z,23.80
2018-09-19T11:35:47.692Z,23.80
2018-09-19T11:38:16.203Z,23.80
2018-09-19T11:40:45.174Z,24.10
2018-09-19T11:43:14.354Z,24.30
2018-09-19T11:45:43.544Z,24.60
2018-09-19T11:48:12.571Z,25.00
2018-09-19T11:50:41.558Z,25.20
2018-09-19T11:53:16.079Z,25.40
2018-09-19T11:55:45.051Z,25.60
2018-09-19T11:58:14.052Z,25.80
2018-09-19T12:00:43.090Z,26.00
2018-09-19T12:03:12.057Z,26.20
2018-09-19T12:05:41.071Z,26.50
2018-09-19T12:08:10.043Z,26.40
2018-09-19T12:10:39.155Z,26.40
2018-09-19T12:13:08.108Z,26.30
2018-09-19T12:15:37.186Z,26.20
2018-09-19T12:18:06.206Z,25.90
2018-09-19T12:20:35.200Z,25.80
2018-09-19T12:23:04.145Z,25.90
2018-09-19T12:25:33.145Z,26.20
2018-09-19T12:28:02.126Z,26.30
2018-09-19T12:30:31.089Z,26.50
2018-09-19T12:33:00.051Z,26.50
2018-09-19T12:35:29.039Z,26.40
2018-09-19T12:37:58.015Z,26.40
2018-09-19T12:40:27.047Z,26.80
2018-09-19T12:42:56.098Z,27.30
2018-09-19T12:45:25.139Z,27.70
2018-09-19T12:47:54.215Z,27.70
2018-09-19T12:50:23.226Z,28.00
2018-09-19T12:52:52.219Z,28.30
2018-09-19T12:55:21.260Z,28.50
2018-09-19T12:57:50.215Z,28.50
2018-09-19T13:00:19.329Z,28.30
2018-09-19T13:02:48.393Z,28.60
2018-09-19T13:05:17.465Z,28.90
2018-09-19T13:07:46.496Z,29.00
2018-09-19T13:10:15.532Z,29.20
2018-09-19T13:12:44.496Z,29.30
2018-09-19T13:15:13.582Z,29.30
2018-09-19T13:17:42.658Z,29.60
2018-09-19T13:20:11.684Z,29.80
2018-09-19T13:22:40.718Z,29.80
2018-09-19T13:25:10.038Z,29.70
2018-09-19T13:27:39.102Z,29.40
2018-09-19T13:30:08.282Z,29.10
2018-09-19T13:32:37.240Z,28.90
2018-09-19T13:35:06.253Z,29.20
2018-09-19T13:37:35.246Z,29.50
2018-09-19T13:40:04.432Z,29.90
2018-09-19T13:42:33.672Z,30.20
2018-09-19T13:45:02.714Z,30.60
2018-09-19T13:47:31.698Z,30.80
2018-09-19T13:50:10.921Z,30.70
2018-09-19T13:52:39.904Z,30.70
2018-09-19T13:55:08.969Z,31.00
2018-09-19T13:57:38.002Z,31.30
2018-09-19T14:00:07.383Z,31.50
2018-09-19T14:02:36.430Z,31.80
2018-09-19T14:05:05.490Z,31.90
2018-09-19T14:07:34.478Z,32.30
2018-09-19T14:10:03.812Z,32.50
2018-09-19T14:12:33.068Z,32.80
2018-09-19T14:15:02.106Z,33.10
2018-09-19T14:17:31.110Z,33.50
2018-09-19T14:20:00.196Z,34.10
2018-09-19T14:22:29.184Z,34.80
2018-09-19T14:24:59.318Z,35.50
2018-09-19T14:27:28.302Z,36.60
2018-09-19T14:29:57.270Z,37.60
2018-09-19T14:32:26.269Z,38.20
2018-09-19T14:34:55.254Z,38.80
2018-09-19T14:37:24.252Z,39.70
2018-09-19T14:39:53.253Z,40.30
2018-09-19T14:42:22.306Z,40.70
2018-09-19T14:44:51.312Z,41.30
2018-09-19T14:47:20.381Z,41.80
2018-09-19T14:49:49.734Z,42.10
2018-09-19T14:52:18.810Z,42.10
2018-09-19T14:54:47.944Z,42.40
2018-09-19T14:57:17.012Z,42.30
2018-09-19T14:59:46.104Z,42.10
2018-09-19T15:02:15.116Z,42.20
2018-09-19T15:04:44.146Z,42.00
2018-09-19T15:07:13.176Z,42.30
2018-09-19T15:09:42.144Z,42.20
2018-09-19T15:12:11.159Z,41.90
2018-09-19T15:14:40.281Z,41.80
2018-09-19T15:17:09.375Z,41.60
2018-09-19T15:19:38.441Z,41.80
2018-09-19T15:22:07.819Z,41.20
2018-09-19T15:24:36.867Z,40.80
2018-09-19T15:27:06.375Z,40.50
2018-09-19T15:29:35.355Z,40.50
2018-09-19T15:32:04.351Z,39.50
2018-09-19T15:34:33.381Z,38.20
2018-09-19T15:37:02.499Z,36.70
2018-09-19T15:39:31.554Z,35.50
2018-09-19T15:42:00.579Z,34.00
2018-09-19T15:44:29.719Z,32.90
2018-09-19T15:46:58.959Z,32.10
2018-09-19T15:49:27.968Z,31.70
2018-09-19T15:51:57.090Z,32.00
2018-09-19T15:54:26.113Z,32.00
2018-09-19T15:56:55.270Z,31.30
2018-09-19T15:59:24.316Z,30.60
2018-09-19T16:01:53.306Z,29.90
2018-09-19T16:04:22.317Z,29.10
2018-09-19T16:06:51.351Z,28.50
2018-09-19T16:09:20.392Z,28.00
2018-09-19T16:11:49.524Z,27.50
2018-09-19T16:14:18.526Z,27.20
2018-09-19T16:16:47.730Z,26.80
2018-09-19T16:19:18.622Z,26.50
2018-09-19T16:21:48.094Z,26.30
2018-09-19T16:24:17.155Z,26.00
2018-09-19T16:26:46.156Z,25.80
2018-09-19T16:29:15.183Z,25.60
2018-09-19T16:31:44.322Z,25.50
2018-09-19T16:34:13.415Z,25.40
2018-09-19T16:36:42.403Z,25.30
2018-09-19T16:39:12.644Z,25.10
2018-09-19T16:41:41.723Z,25.00
2018-09-19T16:44:10.840Z,24.90
2018-09-19T16:46:39.894Z,24.80
2018-09-19T16:49:09.296Z,24.70
2018-09-19T16:51:38.389Z,24.60
2018-09-19T16:54:07.409Z,24.40
2018-09-19T16:56:36.431Z,24.30
2018-09-19T16:59:04.982Z,24.20
2018-09-19T17:01:33.562Z,24.10
2018-09-19T17:04:02.818Z,24.00
2018-09-19T17:06:31.820Z,23.90
2018-09-19T17:09:00.874Z,23.80
2018-09-19T17:11:29.875Z,23.70
2018-09-19T17:13:58.860Z,23.60
2018-09-19T17:16:27.866Z,23.50
2018-09-19T17:18:57.370Z,23.40
2018-09-19T17:21:26.408Z,23.40
2018-09-19T17:23:55.407Z,23.30
2018-09-19T17:26:24.483Z,23.20
2018-09-19T17:28:53.580Z,23.10
2018-09-19T17:31:22.553Z,23.10
2018-09-19T17:33:51.586Z,23.00
2018-09-19T17:36:20.643Z,22.90
2018-09-19T17:38:49.645Z,22.80
2018-09-19T17:41:18.905Z,22.70
2018-09-19T17:43:47.961Z,22.70
2018-09-19T17:46:16.975Z,22.60
2018-09-19T17:48:46.087Z,22.60
2018-09-19T17:51:15.119Z,22.50
2018-09-19T17:53:44.225Z,22.40
2018-09-19T17:56:12.656Z,22.30
2018-09-19T17:58:41.631Z,22.30
2018-09-19T18:01:10.654Z,22.20
2018-09-19T18:03:39.099Z,22.10
2018-09-19T18:06:07.622Z,22.10
2018-09-19T18:08:36.202Z,22.10
2018-09-19T18:11:04.646Z,22.00
2018-09-19T18:13:33.831Z,22.00
2018-09-19T18:16:02.926Z,22.00
2018-09-19T18:18:31.334Z,21.90
2018-09-19T18:20:59.767Z,21.90
2018-09-19T18:23:28.340Z,21.90
2018-09-19T18:25:57.039Z,21.90
2018-09-19T18:28:25.531Z,21.80
2018-09-19T18:30:53.986Z,21.80
2018-09-19T18:33:22.603Z,21.70
2018-09-19T18:35:51.697Z,21.70
2018-09-19T18:38:20.138Z,21.60
2018-09-19T18:40:48.762Z,21.60
2018-09-19T18:43:17.250Z,21.60
2018-09-19T18:45:45.924Z,21.50
2018-09-19T18:48:14.397Z,21.50
2018-09-19T18:50:42.872Z,21.40
2018-09-19T18:53:11.883Z,21.30
2018-09-19T18:55:40.367Z,21.30
2018-09-19T18:58:08.835Z,21.20
2018-09-19T19:00:37.299Z,21.20
2018-09-19T19:03:06.011Z,21.20
2018-09-19T19:05:34.438Z,21.10
2018-09-19T19:08:02.907Z,21.10
2018-09-19T19:10:31.529Z,21.10
2018-09-19T19:13:00.124Z,21.10
2018-09-19T19:15:28.671Z,21.10
2018-09-19T19:17:57.214Z,21.10
2018-09-19T19:20:25.684Z,21.10
2018-09-19T19:22:54.188Z,21.00
2018-09-19T19:25:23.147Z,21.00
2018-09-19T19:27:58.390Z,21.00
2018-09-19T19:30:26.978Z,21.00
2018-09-19T19:32:55.780Z,21.00
2018-09-19T19:35:24.258Z,21.00
2018-09-19T19:37:52.919Z,20.90
2018-09-19T19:40:21.518Z,21.00
2018-09-19T19:42:50.150Z,20.90
2018-09-19T19:45:18.671Z,20.90
2018-09-19T19:47:47.130Z,20.90
2018-09-19T19:50:15.718Z,20.90
2018-09-19T19:52:44.208Z,20.90
2018-09-19T19:55:12.709Z,20.80
2018-09-19T19:57:41.167Z,20.80
2018-09-19T20:00:09.674Z,20.80
2018-09-19T20:02:38.153Z,20.70
2018-09-19T20:05:06.629Z,20.70
2018-09-19T20:07:35.155Z,20.70
2018-09-19T20:10:03.866Z,20.70
2018-09-19T20:12:32.467Z,20.70
2018-09-19T20:15:01.422Z,20.70
2018-09-19T20:17:29.953Z,20.70
2018-09-19T20:19:58.453Z,20.70
2018-09-19T20:22:26.879Z,20.70
2018-09-19T20:24:55.329Z,20.60
2018-09-19T20:27:23.987Z,20.60
2018-09-19T20:29:52.495Z,20.60
2018-09-19T20:32:20.960Z,20.60
2018-09-19T20:34:49.488Z,20.60
2018-09-19T20:37:17.890Z,20.60
2018-09-19T20:39:46.322Z,20.50
2018-09-19T20:42:14.818Z,20.50
2018-09-19T20:44:43.250Z,20.50
2018-09-19T20:47:11.859Z,20.50
2018-09-19T20:49:40.376Z,20.50
2018-09-19T20:52:08.919Z,20.40
2018-09-19T20:54:37.820Z,20.40
2018-09-19T20:57:06.532Z,20.40
2018-09-19T20:59:35.036Z,20.40
2018-09-19T21:02:03.582Z,20.30
2018-09-19T21:04:32.122Z,20.30
2018-09-19T21:07:00.651Z,20.30
2018-09-19T21:09:29.243Z,20.30
2018-09-19T21:11:57.715Z,20.20
2018-09-19T21:14:26.201Z,20.20
2018-09-19T21:16:54.666Z,20.20
2018-09-19T21:19:23.375Z,20.20
2018-09-19T21:21:51.980Z,20.10
2018-09-19T21:24:20.605Z,20.10
2018-09-19T21:26:49.283Z,20.10
2018-09-19T21:29:17.809Z,20.00
2018-09-19T21:31:46.335Z,20.00
2018-09-19T21:34:14.896Z,20.00
2018-09-19T21:36:43.437Z,20.00
2018-09-19T21:39:12.378Z,19.90
2018-09-19T21:41:40.906Z,19.90
2018-09-19T21:44:09.482Z,19.90
2018-09-19T21:46:37.955Z,19.80
2018-09-19T21:49:06.432Z,19.80
2018-09-19T21:51:34.940Z,19.70
2018-09-19T21:54:03.668Z,19.70
2018-09-19T21:56:32.129Z,19.60
2018-09-19T21:59:00.572Z,19.50
2018-09-19T22:01:34.445Z,19.50
2018-09-19T22:04:02.904Z,19.50
2018-09-19T22:06:31.358Z,19.50
2018-09-19T22:08:59.849Z,19.50
2018-09-19T22:11:28.283Z,19.50
2018-09-19T22:13:56.899Z,19.50
2018-09-19T22:16:25.341Z,19.40
2018-09-19T22:18:54.089Z,19.40
2018-09-19T22:21:22.697Z,19.50
2018-09-19T22:23:51.162Z,19.50
2018-09-19T22:26:19.676Z,19.40
2018-09-19T22:28:48.207Z,19.40
2018-09-19T22:31:16.677Z,19.40
2018-09-19T22:33:45.170Z,19.40
2018-09-19T22:36:13.726Z,19.30
2018-09-19T22:38:42.241Z,19.30
2018-09-19T22:41:10.709Z,19.20
2018-09-19T22:43:39.245Z,19.20
2018-09-19T22:46:07.739Z,19.20
2018-09-19T22:48:36.248Z,19.20
2018-09-19T22:51:04.803Z,19.20
2018-09-19T22:53:33.276Z,19.20
2018-09-19T22:56:01.702Z,19.20
2018-09-19T22:58:30.168Z,19.20
2018-09-19T23:00:58.569Z,19.10
2018-09-19T23:03:27.026Z,19.10
2018-09-19T23:05:55.433Z,19.00
2018-09-19T23:08:24.141Z,19.00
2018-09-19T23:10:52.559Z,19.00
2018-09-19T23:13:21.021Z,19.00
2018-09-19T23:15:49.478Z,19.00
2018-09-19T23:18:18.015Z,19.00
2018-09-19T23:20:46.503Z,19.00
2018-09-19T23:23:15.122Z,18.90
2018-09-19T23:25:43.770Z,18.90
2018-09-19T23:28:12.410Z,18.90
2018-09-19T23:30:40.974Z,18.90
2018-09-19T23:33:09.452Z,18.90
2018-09-19T23:35:38.138Z,18.90
2018-09-19T23:38:06.585Z,18.80
2018-09-19T23:40:35.758Z,18.80
2018-09-19T23:43:04.170Z,18.80
2018-09-19T23:45:32.638Z,18.70
2018-09-19T23:48:01.119Z,18.70
2018-09-19T23:50:29.650Z,18.70
2018-09-19T23:52:58.090Z,18.70
2018-09-19T23:55:26.547Z,18.70
2018-09-19T23:57:55.020Z,18.70
